Time;durP1;ratioP1;P1;durP2;ratioP2;P2;SDS_P1;SDS_P2;PMS_P1;PMS_P2;Temp;Humidity;BMP_temperature;BMP_pressure;BME280_temperature;BME280_humidity;BME280_pressure;Samples;Min_cycle;Max_cycle;Signal;HPM_P1;HPM_P2
2023/10/26 00:01:41;;;;;;;13.70;10.50;;;;;;;;;;5127366;27;20100;-48
2023/10/26 00:04:10;;;;;;;8.90;7.38;;;;;;;;;;5121431;28;20069;-47
2023/10/26 00:06:42;;;;;;;9.40;6.18;;;;;;;;;;5104429;28;20188;-47
2023/10/26 00:09:08;;;;;;;7.40;5.38;;;;;;;;;;5113931;28;20338;-46
2023/10/26 00:11:35;;;;;;;6.05;4.95;;;;;;;;;;5121623;28;20330;-52
2023/10/26 00:14:02;;;;;;;5.53;4.82;;;;;;;;;;5135586;27;20315;-45
2023/10/26 00:16:28;;;;;;;7.63;4.40;;;;;;;;;;5114687;28;20028;-49
2023/10/26 00:18:55;;;;;;;6.10;4.60;;;;;;;;;;5117064;28;20024;-45
2023/10/26 00:21:22;;;;;;;6.90;4.72;;;;;;;;;;5121778;28;20030;-46
2023/10/26 00:23:48;;;;;;;9.10;6.82;;;;;;;;;;5134042;28;20031;-53
2023/10/26 00:26:15;;;;;;;7.60;5.95;;;;;;;;;;5123001;28;20088;-46
2023/10/26 00:28:42;;;;;;;7.93;5.45;;;;;;;;;;5099008;28;20073;-43
2023/10/26 00:31:08;;;;;;;9.27;5.80;;;;;;;;;;5119530;28;20028;-54
2023/10/26 00:33:38;;;;;;;7.60;5.28;;;;;;;;;;5135296;28;20019;-44
2023/10/26 00:36:05;;;;;;;9.35;5.70;;;;;;;;;;5140911;28;20019;-47
2023/10/26 00:38:31;;;;;;;27.70;6.55;;;;;;;;;;5140132;28;20023;-45
2023/10/26 00:40:58;;;;;;;10.50;5.38;;;;;;;;;;5133757;27;20020;-47
2023/10/26 00:43:26;;;;;;;9.95;5.38;;;;;;;;;;5122600;28;20180;-48
2023/10/26 00:45:54;;;;;;;9.73;5.28;;;;;;;;;;5107199;28;20320;-45
2023/10/26 00:48:20;;;;;;;10.05;5.82;;;;;;;;;;5106940;28;20031;-46
2023/10/26 00:50:48;;;;;;;9.50;5.53;;;;;;;;;;5106801;28;20031;-48
2023/10/26 00:53:16;;;;;;;9.20;5.55;;;;;;;;;;5107031;28;20039;-48
2023/10/26 00:55:44;;;;;;;9.98;6.18;;;;;;;;;;5107604;28;20031;-48
2023/10/26 00:58:12;;;;;;;8.35;5.93;;;;;;;;;;5107621;28;20016;-51
2023/10/26 01:00:39;;;;;;;9.63;5.95;;;;;;;;;;5106166;28;20028;-47
2023/10/26 01:03:06;;;;;;;10.18;5.43;;;;;;;;;;5106760;28;20062;-44
2023/10/26 01:05:32;;;;;;;9.23;5.68;;;;;;;;;;5106513;28;20079;-48
2023/10/26 01:08:05;;;;;;;9.32;5.72;;;;;;;;;;5106922;28;20055;-47
2023/10/26 01:10:34;;;;;;;7.65;5.28;;;;;;;;;;5107439;28;20081;-45
2023/10/26 01:13:01;;;;;;;8.43;5.40;;;;;;;;;;5106609;28;20032;-47
2023/10/26 01:15:28;;;;;;;7.10;5.60;;;;;;;;;;5106652;28;20028;-47
2023/10/26 01:17:55;;;;;;;9.52;5.30;;;;;;;;;;5116855;28;20013;-47
2023/10/26 01:20:22;;;;;;;6.70;4.93;;;;;;;;;;5118302;28;20036;-49
2023/10/26 01:22:49;;;;;;;9.35;5.32;;;;;;;;;;5106117;28;20079;-47
2023/10/26 01:25:15;;;;;;;9.57;5.18;;;;;;;;;;5106760;28;20199;-44
2023/10/26 01:27:42;;;;;;;12.38;5.32;;;;;;;;;;5106445;28;20038;-50
2023/10/26 01:30:09;;;;;;;11.35;5.88;;;;;;;;;;5106448;28;20088;-47
2023/10/26 01:32:36;;;;;;;8.35;6.05;;;;;;;;;;5106026;28;20020;-46
2023/10/26 01:35:03;;;;;;;10.25;6.70;;;;;;;;;;5106191;28;20028;-46
2023/10/26 01:37:29;;;;;;;11.13;7.22;;;;;;;;;;5105885;28;20362;-46
2023/10/26 01:39:57;;;;;;;9.02;6.60;;;;;;;;;;5106025;28;20024;-49
2023/10/26 01:42:24;;;;;;;9.30;5.95;;;;;;;;;;5105944;28;20048;-47
2023/10/26 01:44:51;;;;;;;8.00;5.90;;;;;;;;;;5105945;28;20070;-53
2023/10/26 01:47:17;;;;;;;9.05;5.63;;;;;;;;;;5105806;28;20015;-44
2023/10/26 01:49:47;;;;;;;8.20;5.95;;;;;;;;;;5105277;28;20103;-45
2023/10/26 01:52:14;;;;;;;7.38;5.65;;;;;;;;;;5105628;28;20043;-46
2023/10/26 01:54:40;;;;;;;11.65;6.40;;;;;;;;;;5105310;28;20243;-53
2023/10/26 01:57:07;;;;;;;8.30;6.13;;;;;;;;;;5105400;28;20028;-49
2023/10/26 01:59:34;;;;;;;11.27;6.45;;;;;;;;;;5105512;28;20308;-49
2023/10/26 02:02:00;;;;;;;8.45;5.93;;;;;;;;;;5105408;28;20020;-46
2023/10/26 02:04:27;;;;;;;13.82;6.72;;;;;;;;;;5105059;28;20032;-44
2023/10/26 02:06:54;;;;;;;10.57;6.95;;;;;;;;;;5111459;27;20034;-50
2023/10/26 02:09:22;;;;;;;12.35;8.38;;;;;;;;;;5120301;28;20259;-48
2023/10/26 02:11:48;;;;;;;9.05;6.65;;;;;;;;;;5125565;28;20032;-48
2023/10/26 02:14:15;;;;;;;14.85;6.90;;;;;;;;;;5125721;28;20141;-48
2023/10/26 02:16:41;;;;;;;12.20;6.90;;;;;;;;;;5125858;28;20015;-49
2023/10/26 02:19:11;;;;;;;11.65;6.85;;;;;;;;;;5126835;27;20028;-51
2023/10/26 02:21:41;;;;;;;9.52;5.93;;;;;;;;;;5130316;27;20030;-50
2023/10/26 02:24:08;;;;;;;12.35;6.28;;;;;;;;;;5125247;28;20203;-50
2023/10/26 02:26:34;;;;;;;13.95;6.43;;;;;;;;;;5135073;27;20090;-48
2023/10/26 02:29:01;;;;;;;6.95;5.35;;;;;;;;;;5126963;27;20091;-48
2023/10/26 02:31:28;;;;;;;9.68;5.63;;;;;;;;;;5125153;28;20027;-49
2023/10/26 02:33:54;;;;;;;8.48;6.53;;;;;;;;;;5125004;28;20060;-49
2023/10/26 02:36:22;;;;;;;8.30;6.50;;;;;;;;;;5125194;28;20020;-45
2023/10/26 02:38:48;;;;;;;7.35;6.20;;;;;;;;;;5125040;28;20330;-48
2023/10/26 02:41:15;;;;;;;9.98;6.80;;;;;;;;;;5124719;28;20094;-55
2023/10/26 02:43:41;;;;;;;13.43;7.35;;;;;;;;;;5129198;27;20410;-55
2023/10/26 02:46:09;;;;;;;9.20;6.72;;;;;;;;;;5136977;27;20055;-51
2023/10/26 02:48:35;;;;;;;10.15;6.40;;;;;;;;;;5119338;27;20240;-53
2023/10/26 02:51:03;;;;;;;11.15;5.90;;;;;;;;;;5121611;28;20034;-48
2023/10/26 02:53:30;;;;;;;13.35;5.97;;;;;;;;;;5124499;28;20019;-50
2023/10/26 02:55:56;;;;;;;10.77;5.57;;;;;;;;;;5127807;27;20019;-50
2023/10/26 02:58:23;;;;;;;9.18;5.25;;;;;;;;;;5132771;27;20030;-53
2023/10/26 03:00:50;;;;;;;7.95;5.70;;;;;;;;;;5123906;28;20080;-51
2023/10/26 03:03:17;;;;;;;9.05;4.68;;;;;;;;;;5124007;28;20034;-51
2023/10/26 03:05:43;;;;;;;6.50;4.97;;;;;;;;;;5124421;28;20035;-52
2023/10/26 03:08:11;;;;;;;8.75;5.55;;;;;;;;;;5124008;28;20031;-51
2023/10/26 03:10:38;;;;;;;9.45;5.18;;;;;;;;;;5124948;28;20219;-56
2023/10/26 03:13:08;;;;;;;8.25;5.10;;;;;;;;;;5124873;28;20097;-57
2023/10/26 03:15:37;;;;;;;10.38;5.00;;;;;;;;;;5127803;28;20168;-46
2023/10/26 03:18:04;;;;;;;9.00;5.18;;;;;;;;;;5128431;27;20054;-45
2023/10/26 03:20:32;;;;;;;11.50;5.00;;;;;;;;;;5124981;28;20184;-50
2023/10/26 03:22:59;;;;;;;8.98;4.95;;;;;;;;;;5124812;28;20047;-51
2023/10/26 03:25:26;;;;;;;7.03;4.57;;;;;;;;;;5124980;28;20032;-52
2023/10/26 03:27:52;;;;;;;9.95;5.20;;;;;;;;;;5124545;28;20016;-48
2023/10/26 03:30:20;;;;;;;7.35;4.88;;;;;;;;;;5124933;28;20019;-48
2023/10/26 03:32:47;;;;;;;11.98;5.85;;;;;;;;;;5124354;28;20125;-45
2023/10/26 03:35:14;;;;;;;11.82;5.57;;;;;;;;;;5124105;28;20079;-49
2023/10/26 03:37:41;;;;;;;12.80;5.63;;;;;;;;;;5124542;28;20036;-50
2023/10/26 03:40:10;;;;;;;11.85;6.00;;;;;;;;;;5124659;28;20031;-55
2023/10/26 03:42:36;;;;;;;13.02;6.13;;;;;;;;;;5124038;28;20035;-50
2023/10/26 03:45:03;;;;;;;10.60;5.80;;;;;;;;;;5124618;28;20095;-50
2023/10/26 03:47:30;;;;;;;12.02;6.15;;;;;;;;;;5124170;28;20042;-52
2023/10/26 03:49:57;;;;;;;11.25;6.22;;;;;;;;;;5124424;28;20314;-56
2023/10/26 03:52:23;;;;;;;11.13;6.57;;;;;;;;;;5124285;28;20046;-48
2023/10/26 03:54:50;;;;;;;11.57;6.78;;;;;;;;;;5124398;28;20027;-47
2023/10/26 03:57:17;;;;;;;10.02;5.70;;;;;;;;;;5124205;28;20042;-53
2023/10/26 03:59:44;;;;;;;10.63;5.63;;;;;;;;;;5124365;28;20043;-49
2023/10/26 04:02:11;;;;;;;5.85;4.97;;;;;;;;;;5124210;28;20038;-50
2023/10/26 04:04:38;;;;;;;10.35;5.60;;;;;;;;;;5124388;28;20306;-50
2023/10/26 04:07:05;;;;;;;13.57;6.07;;;;;;;;;;5124721;28;20083;-49
2023/10/26 04:09:31;;;;;;;9.77;5.65;;;;;;;;;;5124238;28;20323;-52
2023/10/26 04:11:58;;;;;;;9.02;5.60;;;;;;;;;;5124221;28;20026;-52
2023/10/26 04:14:25;;;;;;;13.70;5.45;;;;;;;;;;5124098;28;20295;-50
2023/10/26 04:16:51;;;;;;;13.05;5.60;;;;;;;;;;5124194;28;20034;-52
2023/10/26 04:19:18;;;;;;;9.48;5.00;;;;;;;;;;5128552;27;20068;-50
2023/10/26 04:21:45;;;;;;;8.48;4.70;;;;;;;;;;5148450;27;20019;-54
2023/10/26 04:24:11;;;;;;;11.95;4.70;;;;;;;;;;5148531;27;20035;-49
2023/10/26 04:26:38;;;;;;;7.00;3.55;;;;;;;;;;5148579;27;20027;-49
2023/10/26 04:29:07;;;;;;;8.88;4.20;;;;;;;;;;5148270;27;20015;-50
2023/10/26 04:31:34;;;;;;;9.75;3.50;;;;;;;;;;5148369;27;20019;-44
2023/10/26 04:34:01;;;;;;;8.70;4.32;;;;;;;;;;5148486;27;20041;-49
2023/10/26 04:36:27;;;;;;;9.45;3.47;;;;;;;;;;5148105;27;20019;-48
2023/10/26 04:38:54;;;;;;;8.15;3.40;;;;;;;;;;5147986;27;20023;-49
2023/10/26 04:41:21;;;;;;;5.57;3.13;;;;;;;;;;5148012;27;20024;-50
2023/10/26 04:43:47;;;;;;;8.13;3.40;;;;;;;;;;5147855;27;20067;-50
2023/10/26 04:46:14;;;;;;;9.00;3.72;;;;;;;;;;5148409;27;20104;-47
2023/10/26 04:48:41;;;;;;;7.20;3.20;;;;;;;;;;5147896;27;20076;-51
2023/10/26 04:51:08;;;;;;;7.15;3.22;;;;;;;;;;5148489;27;20045;-49
2023/10/26 04:53:35;;;;;;;4.88;3.35;;;;;;;;;;5148219;27;20087;-52
2023/10/26 04:56:02;;;;;;;5.85;3.33;;;;;;;;;;5148440;27;20036;-51
2023/10/26 04:58:33;;;;;;;7.40;3.53;;;;;;;;;;5148039;27;20035;-46
2023/10/26 05:01:00;;;;;;;9.50;3.58;;;;;;;;;;5147878;27;20015;-48
2023/10/26 05:03:26;;;;;;;5.70;3.50;;;;;;;;;;5148048;27;20027;-45
2023/10/26 05:05:53;;;;;;;6.10;3.20;;;;;;;;;;5147472;27;20023;-47
2023/10/26 05:08:20;;;;;;;4.55;3.17;;;;;;;;;;5147926;27;20224;-46
2023/10/26 05:10:46;;;;;;;6.72;3.03;;;;;;;;;;5147657;27;20019;-48
2023/10/26 05:13:14;;;;;;;6.22;3.15;;;;;;;;;;5147569;27;20027;-49
2023/10/26 05:15:44;;;;;;;5.10;3.13;;;;;;;;;;5147498;27;20028;-49
2023/10/26 05:18:10;;;;;;;4.85;3.15;;;;;;;;;;5147562;27;20023;-48
2023/10/26 05:20:38;;;;;;;7.22;3.03;;;;;;;;;;5147175;27;20306;-49
2023/10/26 05:23:05;;;;;;;6.60;3.05;;;;;;;;;;5147670;27;20218;-51
2023/10/26 05:25:32;;;;;;;6.90;2.80;;;;;;;;;;5147201;27;20322;-48
2023/10/26 05:27:59;;;;;;;4.07;2.85;;;;;;;;;;5147398;27;20068;-49
2023/10/26 05:30:26;;;;;;;6.75;2.80;;;;;;;;;;5146970;27;20086;-49
2023/10/26 05:32:53;;;;;;;5.90;2.75;;;;;;;;;;5147264;27;20038;-49
2023/10/26 05:35:19;;;;;;;8.00;2.85;;;;;;;;;;5147037;27;20019;-49
2023/10/26 05:37:46;;;;;;;4.05;2.60;;;;;;;;;;5147251;27;20038;-48
2023/10/26 05:40:13;;;;;;;5.15;2.55;;;;;;;;;;5147028;27;20011;-48
2023/10/26 05:42:39;;;;;;;3.83;2.55;;;;;;;;;;5146775;27;20050;-49
2023/10/26 05:45:06;;;;;;;3.90;2.30;;;;;;;;;;5146963;27;20092;-48
2023/10/26 05:47:33;;;;;;;4.07;2.45;;;;;;;;;;5147104;27;20320;-48
2023/10/26 05:49:59;;;;;;;3.65;2.67;;;;;;;;;;5146756;27;20053;-49
2023/10/26 05:52:26;;;;;;;4.95;2.95;;;;;;;;;;5146893;27;20071;-48
2023/10/26 05:54:53;;;;;;;4.03;2.70;;;;;;;;;;5146737;27;20358;-44
2023/10/26 05:57:19;;;;;;;4.95;2.83;;;;;;;;;;5146615;27;20042;-46
2023/10/26 05:59:46;;;;;;;6.25;3.28;;;;;;;;;;5146642;27;20050;-50
2023/10/26 06:02:12;;;;;;;5.65;3.10;;;;;;;;;;5146666;27;20026;-50
2023/10/26 06:04:39;;;;;;;4.10;2.70;;;;;;;;;;5146542;27;20019;-51
2023/10/26 06:07:06;;;;;;;4.22;2.80;;;;;;;;;;5146319;27;20043;-50
2023/10/26 06:09:32;;;;;;;6.60;3.30;;;;;;;;;;5146442;27;20019;-49
2023/10/26 06:11:59;;;;;;;4.82;2.80;;;;;;;;;;5146366;27;20019;-47
2023/10/26 06:14:26;;;;;;;5.47;3.03;;;;;;;;;;5146151;27;20264;-47
2023/10/26 06:16:52;;;;;;;5.18;3.05;;;;;;;;;;5146264;27;20015;-49
2023/10/26 06:19:19;;;;;;;6.57;3.38;;;;;;;;;;5146580;27;20011;-48
2023/10/26 06:21:45;;;;;;;8.20;2.90;;;;;;;;;;5146013;27;20034;-46
2023/10/26 06:24:12;;;;;;;7.05;3.20;;;;;;;;;;5146497;27;20306;-53
2023/10/26 06:26:39;;;;;;;7.07;3.30;;;;;;;;;;5145992;27;20023;-51
2023/10/26 06:29:05;;;;;;;6.28;3.05;;;;;;;;;;5146234;27;20241;-48
2023/10/26 06:31:32;;;;;;;8.18;3.30;;;;;;;;;;5146009;27;20314;-52
2023/10/26 06:33:59;;;;;;;5.95;3.28;;;;;;;;;;5146405;27;20034;-47
2023/10/26 06:36:25;;;;;;;11.05;3.03;;;;;;;;;;5145776;27;20075;-45
2023/10/26 06:38:54;;;;;;;7.82;3.13;;;;;;;;;;5146278;27;20023;-46
2023/10/26 06:41:20;;;;;;;7.07;2.75;;;;;;;;;;5145241;27;20254;-50
2023/10/26 06:43:47;;;;;;;6.60;3.10;;;;;;;;;;5145313;27;20387;-46
2023/10/26 06:46:14;;;;;;;6.38;3.22;;;;;;;;;;5145714;27;20023;-54
2023/10/26 06:48:40;;;;;;;4.97;3.47;;;;;;;;;;5146035;27;20031;-49
2023/10/26 06:51:07;;;;;;;6.15;3.70;;;;;;;;;;5145483;27;20086;-50
2023/10/26 06:53:34;;;;;;;6.97;3.20;;;;;;;;;;5145933;27;20075;-47
2023/10/26 06:56:00;;;;;;;5.75;3.28;;;;;;;;;;5145644;27;20019;-53
2023/10/26 06:58:27;;;;;;;10.38;3.60;;;;;;;;;;5145730;27;20055;-52
2023/10/26 07:00:54;;;;;;;6.43;3.15;;;;;;;;;;5145374;27;20037;-57
2023/10/26 07:03:21;;;;;;;5.43;3.03;;;;;;;;;;5145945;27;20019;-52
2023/10/26 07:05:47;;;;;;;6.95;2.78;;;;;;;;;;5145329;27;20031;-58
2023/10/26 07:08:14;;;;;;;6.90;2.60;;;;;;;;;;5145635;27;20294;-51
2023/10/26 07:10:41;;;;;;;4.80;2.92;;;;;;;;;;5145504;27;20292;-48
2023/10/26 07:13:08;;;;;;;4.95;2.40;;;;;;;;;;5145333;27;20095;-49
2023/10/26 07:15:36;;;;;;;5.18;2.78;;;;;;;;;;5145334;27;20033;-48
2023/10/26 07:18:02;;;;;;;5.05;3.33;;;;;;;;;;5145537;27;20287;-48
2023/10/26 07:20:29;;;;;;;6.40;2.70;;;;;;;;;;5145124;27;20030;-50
2023/10/26 07:22:56;;;;;;;7.55;3.00;;;;;;;;;;5145205;27;20023;-50
2023/10/26 07:25:23;;;;;;;7.63;2.85;;;;;;;;;;5145233;27;20023;-50
2023/10/26 07:27:49;;;;;;;5.85;3.10;;;;;;;;;;5145468;27;20035;-52
2023/10/26 07:30:16;;;;;;;6.78;3.20;;;;;;;;;;5145087;27;20026;-50
2023/10/26 07:32:43;;;;;;;4.80;2.95;;;;;;;;;;5145169;28;20311;-50
2023/10/26 07:35:09;;;;;;;6.68;3.17;;;;;;;;;;5144952;28;20019;-50
2023/10/26 07:37:37;;;;;;;8.45;3.33;;;;;;;;;;5145059;28;20026;-51
2023/10/26 07:40:04;;;;;;;6.35;2.72;;;;;;;;;;5144932;28;20061;-50
2023/10/26 07:42:30;;;;;;;5.45;2.72;;;;;;;;;;5144880;28;20111;-50
2023/10/26 07:44:57;;;;;;;9.57;3.10;;;;;;;;;;5144845;28;20342;-49
2023/10/26 07:47:24;;;;;;;6.65;2.50;;;;;;;;;;5145150;28;20261;-48
2023/10/26 07:49:50;;;;;;;6.18;2.63;;;;;;;;;;5144791;28;20057;-48
2023/10/26 07:52:17;;;;;;;5.05;2.75;;;;;;;;;;5144714;27;20027;-51
2023/10/26 07:54:44;;;;;;;7.15;2.80;;;;;;;;;;5148298;27;20030;-48
2023/10/26 07:57:11;;;;;;;4.88;2.83;;;;;;;;;;5149029;27;20027;-50
2023/10/26 07:59:37;;;;;;;7.30;2.95;;;;;;;;;;5148708;27;20017;-51
2023/10/26 08:02:05;;;;;;;5.55;2.63;;;;;;;;;;5148996;27;20027;-53
2023/10/26 08:04:32;;;;;;;6.53;2.65;;;;;;;;;;5148759;27;20035;-52
2023/10/26 08:07:00;;;;;;;6.55;2.80;;;;;;;;;;5148804;27;20041;-49
2023/10/26 08:09:31;;;;;;;5.10;2.78;;;;;;;;;;5148696;27;20067;-48
2023/10/26 08:11:58;;;;;;;8.77;2.77;;;;;;;;;;5148491;27;20035;-50
2023/10/26 08:14:26;;;;;;;9.23;2.65;;;;;;;;;;5148522;27;20023;-50
2023/10/26 08:16:53;;;;;;;5.95;2.80;;;;;;;;;;5148497;27;20068;-51
2023/10/26 08:19:20;;;;;;;7.45;2.42;;;;;;;;;;5148588;27;20249;-50
2023/10/26 08:21:46;;;;;;;11.88;2.60;;;;;;;;;;5148267;27;20025;-51
2023/10/26 08:24:13;;;;;;;14.82;3.05;;;;;;;;;;5149082;27;20169;-50
2023/10/26 08:26:39;;;;;;;8.68;2.83;;;;;;;;;;5148474;27;20248;-53
2023/10/26 08:29:06;;;;;;;6.45;2.53;;;;;;;;;;5148755;27;20025;-50
2023/10/26 08:31:36;;;;;;;6.57;2.88;;;;;;;;;;5148242;27;20046;-51
2023/10/26 08:34:03;;;;;;;8.10;2.90;;;;;;;;;;5148726;27;20103;-48
2023/10/26 08:36:30;;;;;;;8.05;3.00;;;;;;;;;;5147968;27;20203;-48
2023/10/26 08:38:56;;;;;;;10.48;2.95;;;;;;;;;;5148583;27;20023;-51
2023/10/26 08:41:23;;;;;;;12.30;2.97;;;;;;;;;;5148066;27;20094;-51
2023/10/26 08:43:50;;;;;;;5.03;2.47;;;;;;;;;;5147662;27;20039;-49
2023/10/26 08:46:19;;;;;;;10.98;2.72;;;;;;;;;;5148010;27;20019;-47
2023/10/26 08:48:47;;;;;;;10.00;2.55;;;;;;;;;;5148293;27;20063;-47
2023/10/26 08:51:13;;;;;;;6.47;2.92;;;;;;;;;;5147696;27;20015;-48
2023/10/26 08:53:40;;;;;;;7.35;2.53;;;;;;;;;;5148198;27;20019;-47
2023/10/26 08:56:11;;;;;;;7.53;2.50;;;;;;;;;;5147985;27;20329;-49
2023/10/26 08:58:38;;;;;;;5.97;2.40;;;;;;;;;;5148014;27;20083;-49
2023/10/26 09:01:06;;;;;;;4.40;2.53;;;;;;;;;;5147709;27;20020;-48
2023/10/26 09:03:33;;;;;;;8.77;2.72;;;;;;;;;;5147920;27;20062;-47
2023/10/26 09:06:00;;;;;;;6.68;2.55;;;;;;;;;;5147246;27;20019;-51
2023/10/26 09:08:29;;;;;;;6.47;2.50;;;;;;;;;;5148106;27;20071;-48
2023/10/26 09:10:56;;;;;;;6.80;2.22;;;;;;;;;;5147783;27;20027;-52
2023/10/26 09:13:24;;;;;;;6.05;2.65;;;;;;;;;;5147602;27;20046;-50
2023/10/26 09:15:52;;;;;;;7.88;2.47;;;;;;;;;;5147461;27;20046;-52
2023/10/26 09:18:19;;;;;;;9.85;2.75;;;;;;;;;;5147532;27;20180;-55
2023/10/26 09:21:02;;;;;;;5.95;2.30;;;;;;;;;;5147551;27;20025;-51
2023/10/26 09:23:30;;;;;;;7.07;2.60;;;;;;;;;;5108849;28;20318;-52
2023/10/26 09:26:07;;;;;;;7.28;2.67;;;;;;;;;;5105911;28;20055;-51
2023/10/26 09:28:51;;;;;;;4.18;2.15;;;;;;;;;;5106493;28;20200;-53
2023/10/26 09:31:18;;;;;;;5.93;2.40;;;;;;;;;;5110054;28;20089;-51
2023/10/26 09:33:45;;;;;;;13.45;2.70;;;;;;;;;;5126747;28;20027;-53
2023/10/26 09:36:16;;;;;;;12.50;2.80;;;;;;;;;;5126350;28;20054;-56
2023/10/26 09:38:43;;;;;;;9.27;2.45;;;;;;;;;;5126968;28;20027;-50
2023/10/26 09:41:11;;;;;;;12.88;2.67;;;;;;;;;;5126354;28;20027;-50
2023/10/26 09:43:40;;;;;;;9.88;3.00;;;;;;;;;;5125920;28;20386;-50
2023/10/26 09:46:07;;;;;;;8.43;3.42;;;;;;;;;;5126199;28;20020;-49
2023/10/26 09:48:34;;;;;;;8.85;2.72;;;;;;;;;;5126495;28;20023;-51
2023/10/26 09:51:01;;;;;;;7.15;2.95;;;;;;;;;;5126049;28;20024;-48
2023/10/26 09:53:31;;;;;;;5.30;2.80;;;;;;;;;;5126298;28;20027;-48
2023/10/26 09:55:58;;;;;;;6.70;2.65;;;;;;;;;;5126017;28;20023;-50
2023/10/26 09:58:26;;;;;;;7.43;2.65;;;;;;;;;;5112969;28;20032;-47
2023/10/26 10:00:53;;;;;;;6.78;3.08;;;;;;;;;;5105692;28;20008;-48
2023/10/26 10:03:19;;;;;;;7.57;3.13;;;;;;;;;;5116557;28;20334;-44
2023/10/26 10:05:50;;;;;;;8.88;3.17;;;;;;;;;;5146250;27;20034;-50
2023/10/26 10:08:38;;;;;;;4.47;2.80;;;;;;;;;;5146687;27;20076;-49
2023/10/26 10:11:19;;;;;;;9.02;3.22;;;;;;;;;;5145994;27;20219;-51
2023/10/26 10:13:45;;;;;;;5.30;2.90;;;;;;;;;;5146213;27;20042;-51
2023/10/26 10:16:31;;;;;;;4.32;3.00;;;;;;;;;;5145275;27;20034;-51
2023/10/26 10:19:16;;;;;;;5.70;3.10;;;;;;;;;;5146438;27;20091;-50
2023/10/26 10:21:43;;;;;;;6.78;3.42;;;;;;;;;;5128220;27;20022;-48
2023/10/26 10:24:10;;;;;;;11.38;3.60;;;;;;;;;;5133957;27;20300;-54
2023/10/26 10:26:55;;;;;;;12.50;3.30;;;;;;;;;;5125697;28;20057;-50
2023/10/26 10:29:22;;;;;;;10.15;3.33;;;;;;;;;;5125441;28;20027;-52
2023/10/26 10:31:48;;;;;;;9.32;3.20;;;;;;;;;;5125711;27;20039;-44
2023/10/26 10:34:19;;;;;;;6.97;3.47;;;;;;;;;;5125045;28;20020;-45
2023/10/26 10:37:04;;;;;;;11.05;3.83;;;;;;;;;;5125180;28;20019;-52
2023/10/26 10:39:31;;;;;;;7.05;3.33;;;;;;;;;;5125167;28;20031;-50
2023/10/26 10:41:57;;;;;;;10.70;3.58;;;;;;;;;;5129512;27;20027;-49
2023/10/26 10:44:25;;;;;;;9.52;4.00;;;;;;;;;;5108626;28;20032;-49
2023/10/26 10:46:51;;;;;;;12.00;4.00;;;;;;;;;;5104545;28;20196;-52
2023/10/26 10:49:24;;;;;;;13.70;4.47;;;;;;;;;;5096797;28;20019;-51
2023/10/26 10:51:50;;;;;;;;;;;;;;;;;;5105010;28;20028;-51
2023/10/26 10:54:21;;;;;;;15.65;5.18;;;;;;;;;;5096552;28;19904;-49
2023/10/26 10:56:48;;;;;;;24.45;5.72;;;;;;;;;;5124929;28;20031;-51
2023/10/26 10:59:16;;;;;;;17.27;5.65;;;;;;;;;;5095332;28;20040;-50
2023/10/26 11:01:43;;;;;;;14.25;5.28;;;;;;;;;;5101688;28;20279;-50
2023/10/26 11:04:13;;;;;;;17.27;5.95;;;;;;;;;;5108974;28;20056;-42
2023/10/26 11:06:47;;;;;;;11.75;5.25;;;;;;;;;;5119983;28;20042;-51
2023/10/26 11:09:31;;;;;;;12.02;5.30;;;;;;;;;;5116687;28;20326;-42
2023/10/26 11:12:09;;;;;;;11.10;4.85;;;;;;;;;;5124729;28;20040;-45
2023/10/26 11:14:35;;;;;;;13.43;5.57;;;;;;;;;;5124457;28;20321;-44
2023/10/26 11:17:02;;;;;;;15.85;5.28;;;;;;;;;;5124120;28;20036;-42
2023/10/26 11:19:29;;;;;;;10.17;4.83;;;;;;;;;;5119243;28;20016;-43
2023/10/26 11:21:56;;;;;;;12.00;5.20;;;;;;;;;;5123876;28;20216;-47
2023/10/26 11:24:32;;;;;;;9.90;5.30;;;;;;;;;;5117184;28;20031;-43
2023/10/26 11:27:09;;;;;;;12.25;5.38;;;;;;;;;;5122048;28;20212;-46
2023/10/26 11:29:35;;;;;;;13.05;6.00;;;;;;;;;;5117300;28;20031;-48
2023/10/26 11:32:02;;;;;;;12.48;4.32;;;;;;;;;;5120897;28;20027;-45
2023/10/26 11:34:29;;;;;;;5.88;4.10;;;;;;;;;;5116689;28;20024;-47
2023/10/26 11:36:57;;;;;;;9.10;4.30;;;;;;;;;;5120990;28;20011;-52
2023/10/26 11:39:24;;;;;;;14.60;4.20;;;;;;;;;;5115670;28;20024;-49
2023/10/26 11:41:57;;;;;;;12.18;4.32;;;;;;;;;;5123359;28;20087;-49
2023/10/26 11:44:25;;;;;;;10.52;4.35;;;;;;;;;;5124468;28;20032;-47
2023/10/26 11:47:02;;;;;;;8.38;4.07;;;;;;;;;;5124518;28;20346;-53
2023/10/26 11:49:38;;;;;;;10.80;4.30;;;;;;;;;;5124507;28;20048;-46
2023/10/26 11:52:05;;;;;;;7.65;3.75;;;;;;;;;;5124352;28;20059;-47
2023/10/26 11:54:32;;;;;;;10.88;3.70;;;;;;;;;;5124483;28;20108;-48
2023/10/26 11:56:59;;;;;;;13.35;3.75;;;;;;;;;;5124745;28;20084;-46
2023/10/26 11:59:26;;;;;;;7.95;3.80;;;;;;;;;;5124230;28;20031;-45
2023/10/26 12:01:53;;;;;;;10.07;3.47;;;;;;;;;;5124385;28;20338;-48
2023/10/26 12:04:20;;;;;;;6.70;3.20;;;;;;;;;;5106445;28;20343;-53
2023/10/26 12:06:46;;;;;;;8.05;3.65;;;;;;;;;;5124153;28;20330;-45
2023/10/26 12:09:16;;;;;;;7.00;3.53;;;;;;;;;;5124213;28;20020;-48
2023/10/26 12:11:45;;;;;;;13.38;3.65;;;;;;;;;;5124335;28;20036;-47
2023/10/26 12:14:12;;;;;;;8.35;3.40;;;;;;;;;;5124658;28;20015;-44
2023/10/26 12:16:40;;;;;;;5.75;3.42;;;;;;;;;;5124491;28;20028;-48
2023/10/26 12:19:07;;;;;;;8.70;3.20;;;;;;;;;;5123964;28;20320;-46
2023/10/26 12:21:33;;;;;;;6.75;3.20;;;;;;;;;;5123871;28;20043;-46
2023/10/26 12:24:00;;;;;;;7.70;3.65;;;;;;;;;;5123956;28;20024;-49
2023/10/26 12:26:27;;;;;;;6.00;3.50;;;;;;;;;;5124055;28;20036;-45
2023/10/26 12:28:53;;;;;;;8.18;3.40;;;;;;;;;;5123675;28;20015;-49
2023/10/26 12:31:21;;;;;;;8.77;3.35;;;;;;;;;;5123940;28;20020;-46
2023/10/26 12:33:48;;;;;;;5.22;3.17;;;;;;;;;;5123614;28;20088;-45
2023/10/26 12:36:15;;;;;;;5.35;3.00;;;;;;;;;;5123612;28;20040;-50
2023/10/26 12:38:41;;;;;;;7.35;3.15;;;;;;;;;;5123729;28;20211;-45
2023/10/26 12:41:08;;;;;;;8.93;3.28;;;;;;;;;;5127203;28;20024;-49
2023/10/26 12:43:35;;;;;;;9.15;3.55;;;;;;;;;;5127261;28;20043;-50
2023/10/26 12:46:01;;;;;;;14.82;4.25;;;;;;;;;;5125692;28;20027;-43
2023/10/26 12:48:28;;;;;;;34.17;4.88;;;;;;;;;;5120701;28;20031;-43
2023/10/26 12:50:55;;;;;;;34.42;4.70;;;;;;;;;;5126580;28;20023;-44
2023/10/26 12:53:22;;;;;;;26.15;4.82;;;;;;;;;;5119655;28;20215;-44
2023/10/26 12:55:48;;;;;;;36.92;4.85;;;;;;;;;;5127203;28;20034;-46
2023/10/26 12:58:15;;;;;;;31.10;5.25;;;;;;;;;;5127036;28;20020;-49
2023/10/26 13:00:42;;;;;;;31.30;4.38;;;;;;;;;;5126899;28;20312;-44
2023/10/26 13:03:08;;;;;;;32.22;4.70;;;;;;;;;;5119023;28;20036;-47
2023/10/26 13:05:35;;;;;;;27.67;4.55;;;;;;;;;;5127068;28;20068;-51
2023/10/26 13:08:02;;;;;;;35.95;5.25;;;;;;;;;;5118862;28;20039;-45
2023/10/26 13:10:31;;;;;;;26.35;5.30;;;;;;;;;;5126916;28;20023;-47
2023/10/26 13:12:57;;;;;;;40.80;4.97;;;;;;;;;;5118300;28;20027;-43
2023/10/26 13:15:24;;;;;;;29.77;5.68;;;;;;;;;;5126717;28;20039;-46
2023/10/26 13:17:50;;;;;;;37.20;4.72;;;;;;;;;;5118853;28;20054;-46
2023/10/26 13:20:17;;;;;;;33.03;4.78;;;;;;;;;;5126769;28;20061;-45
2023/10/26 13:22:47;;;;;;;29.58;4.25;;;;;;;;;;5118080;28;20066;-49
2023/10/26 13:25:14;;;;;;;25.23;4.68;;;;;;;;;;5126598;28;20099;-47
2023/10/26 13:27:41;;;;;;;27.40;4.45;;;;;;;;;;5118370;28;20043;-45
2023/10/26 13:30:09;;;;;;;22.52;4.18;;;;;;;;;;5126425;28;20207;-44
2023/10/26 13:32:38;;;;;;;18.98;4.10;;;;;;;;;;5118158;28;20072;-45
2023/10/26 13:35:05;;;;;;;20.23;3.78;;;;;;;;;;5126385;28;20318;-44
2023/10/26 13:37:32;;;;;;;23.70;4.15;;;;;;;;;;5117875;28;20023;-46
2023/10/26 13:39:59;;;;;;;13.57;3.70;;;;;;;;;;5126458;28;20231;-48
2023/10/26 13:42:28;;;;;;;15.80;4.15;;;;;;;;;;5118210;28;20092;-44
2023/10/26 13:44:55;;;;;;;23.35;3.95;;;;;;;;;;5126264;28;20023;-46
2023/10/26 13:47:22;;;;;;;13.68;3.70;;;;;;;;;;5118109;28;20031;-49
2023/10/26 13:49:48;;;;;;;11.02;3.38;;;;;;;;;;5126186;28;20011;-43
2023/10/26 13:52:15;;;;;;;14.25;3.70;;;;;;;;;;5117621;28;20035;-45
2023/10/26 13:54:42;;;;;;;14.05;3.33;;;;;;;;;;5126076;28;20030;-44
2023/10/26 13:57:09;;;;;;;29.17;4.80;;;;;;;;;;5117798;28;20031;-46
2023/10/26 13:59:37;;;;;;;40.13;4.80;;;;;;;;;;5125751;28;20042;-44
2023/10/26 14:02:04;;;;;;;28.08;4.43;;;;;;;;;;5117536;28;20036;-44
2023/10/26 14:04:34;;;;;;;26.33;4.75;;;;;;;;;;5125814;28;20025;-43
2023/10/26 14:07:01;;;;;;;35.80;5.20;;;;;;;;;;5117579;28;20031;-45
2023/10/26 14:09:30;;;;;;;21.92;4.30;;;;;;;;;;5125839;28;20031;-46
2023/10/26 14:12:01;;;;;;;24.27;4.07;;;;;;;;;;5117278;28;20087;-45
2023/10/26 14:14:32;;;;;;;23.67;3.92;;;;;;;;;;5125558;28;20047;-44
2023/10/26 14:16:59;;;;;;;14.70;3.90;;;;;;;;;;5117313;28;20095;-46
2023/10/26 14:19:26;;;;;;;18.73;4.05;;;;;;;;;;5125728;28;20253;-44
2023/10/26 14:21:52;;;;;;;15.80;3.75;;;;;;;;;;5117367;28;20367;-45
2023/10/26 14:24:19;;;;;;;13.88;3.53;;;;;;;;;;5125768;28;20039;-47
2023/10/26 14:26:46;;;;;;;8.23;3.83;;;;;;;;;;5118004;28;20099;-44
2023/10/26 14:29:13;;;;;;;7.97;3.55;;;;;;;;;;5125502;28;20030;-45
2023/10/26 14:31:39;;;;;;;11.73;3.90;;;;;;;;;;5118700;28;20303;-46
2023/10/26 14:34:06;;;;;;;10.05;3.40;;;;;;;;;;5124280;28;20027;-43
2023/10/26 14:36:33;;;;;;;7.60;3.40;;;;;;;;;;5119829;28;20031;-47
2023/10/26 14:39:00;;;;;;;13.75;4.03;;;;;;;;;;5123601;28;20051;-46
2023/10/26 14:41:27;;;;;;;9.85;4.25;;;;;;;;;;5120591;28;20050;-48